createdAt,value
2023-06-22T00:00:57.562Z,18.75
2023-06-22T00:03:56.959Z,18.625
2023-06-22T00:06:57.766Z,18.437
2023-06-22T00:09:57.458Z,18.437
2023-06-22T00:12:56.971Z,18.437
2023-06-22T00:15:56.844Z,18.375
2023-06-22T00:18:57.190Z,18.375
2023-06-22T00:21:57.043Z,18.187
2023-06-22T00:24:57.018Z,18.125
2023-06-22T00:27:57.252Z,18.125
2023-06-22T00:30:58.088Z,18.125
2023-06-22T00:33:56.758Z,18.125
2023-06-22T00:36:57.703Z,18.125
2023-06-22T00:39:56.823Z,17.875
2023-06-22T00:42:57.298Z,17.875
2023-06-22T00:45:57.247Z,17.625
2023-06-22T00:48:57.431Z,17.875
2023-06-22T00:51:57.286Z,17.812
2023-06-22T00:54:57.309Z,17.625
2023-06-22T00:57:57.307Z,17.625
2023-06-22T01:00:57.757Z,17.75
2023-06-22T01:03:57.504Z,18.062
2023-06-22T01:06:57.060Z,18.062
2023-06-22T01:09:57.319Z,18.437
2023-06-22T01:12:57.213Z,18.5
2023-06-22T01:15:57.269Z,18.5
2023-06-22T01:18:57.676Z,18.625
2023-06-22T01:21:57.065Z,18.812
2023-06-22T01:24:56.903Z,18.812
2023-06-22T01:27:56.898Z,18.687
2023-06-22T01:30:57.685Z,18.812
2023-06-22T01:33:57.730Z,18.812
2023-06-22T01:36:57.397Z,18.625
2023-06-22T01:39:57.277Z,18.437
2023-06-22T01:42:57.637Z,18.125
2023-06-22T01:45:57.095Z,17.875
2023-06-22T01:48:57.718Z,17.687
2023-06-22T01:51:56.835Z,17.5
2023-06-22T01:54:57.450Z,17.375
2023-06-22T01:57:57.212Z,17.312
2023-06-22T02:00:57.252Z,17.25
2023-06-22T02:03:57.551Z,17.25
2023-06-22T02:06:57.267Z,17.25
2023-06-22T02:09:57.517Z,17.187
2023-06-22T02:12:56.998Z,17.0
2023-06-22T02:15:57.813Z,16.687
2023-06-22T02:18:57.138Z,16.5
2023-06-22T02:21:57.225Z,16.375
2023-06-22T02:24:57.490Z,16.375
2023-06-22T02:27:57.005Z,16.437
2023-06-22T02:30:57.727Z,16.5
2023-06-22T02:33:56.946Z,16.437
2023-06-22T02:36:56.837Z,16.375
2023-06-22T02:39:56.956Z,16.375
2023-06-22T02:42:57.848Z,16.375
2023-06-22T02:45:57.311Z,16.25
2023-06-22T02:48:57.876Z,16.25
2023-06-22T02:51:57.513Z,16.125
2023-06-22T02:54:57.227Z,16.25
2023-06-22T02:57:56.864Z,16.437
2023-06-22T03:00:57.566Z,16.5
2023-06-22T03:03:57.689Z,16.5
2023-06-22T03:06:56.751Z,16.5
2023-06-22T03:09:57.547Z,16.5
2023-06-22T03:12:56.943Z,16.687
2023-06-22T03:15:57.412Z,16.75
2023-06-22T03:18:57.487Z,16.875
2023-06-22T03:21:56.817Z,16.937
2023-06-22T03:24:57.207Z,17.0
2023-06-22T03:27:57.463Z,17.25
2023-06-22T03:30:58.099Z,17.375
2023-06-22T03:33:57.241Z,17.437
2023-06-22T03:36:57.261Z,17.437
2023-06-22T03:39:56.855Z,17.5
2023-06-22T03:42:56.895Z,17.437
2023-06-22T03:45:57.238Z,17.375
2023-06-22T03:48:57.021Z,17.375
2023-06-22T03:51:56.998Z,17.312
2023-06-22T03:54:56.805Z,17.25
2023-06-22T03:57:57.137Z,17.25
2023-06-22T04:00:57.840Z,17.25
2023-06-22T04:03:57.671Z,17.312
2023-06-22T04:06:57.123Z,17.375
2023-06-22T04:09:57.461Z,17.375
2023-06-22T04:12:57.109Z,17.562
2023-06-22T04:15:57.324Z,17.687
2023-06-22T04:18:57.548Z,17.75
2023-06-22T04:21:57.633Z,17.75
2023-06-22T04:24:57.240Z,17.75
2023-06-22T04:27:57.443Z,18.062
2023-06-22T04:30:57.944Z,18.187
2023-06-22T04:33:57.452Z,18.125
2023-06-22T04:36:57.391Z,18.0
2023-06-22T04:39:57.896Z,18.062
2023-06-22T04:42:57.494Z,18.125
2023-06-22T04:45:57.511Z,18.312
2023-06-22T04:48:57.562Z,18.312
2023-06-22T04:51:57.099Z,18.5
2023-06-22T04:54:57.943Z,18.687
2023-06-22T04:57:57.284Z,18.687
2023-06-22T05:00:57.145Z,18.812
2023-06-22T05:03:57.647Z,18.812
2023-06-22T05:06:57.821Z,18.875
2023-06-22T05:09:57.798Z,18.875
2023-06-22T05:12:57.103Z,19.0
2023-06-22T05:15:57.758Z,18.937
2023-06-22T05:18:57.680Z,18.937
2023-06-22T05:21:57.724Z,19.125
2023-06-22T05:24:57.765Z,19.312
2023-06-22T05:27:58.203Z,18.937
2023-06-22T05:30:56.905Z,19.25
2023-06-22T05:33:57.476Z,19.312
2023-06-22T05:36:59.152Z,19.562
2023-06-22T05:39:57.041Z,19.75
2023-06-22T05:42:57.931Z,19.875
2023-06-22T05:45:57.563Z,19.875
2023-06-22T05:48:57.381Z,20.375
2023-06-22T05:51:57.213Z,20.375
2023-06-22T05:54:57.378Z,20.375
2023-06-22T05:57:57.771Z,20.625
2023-06-22T06:00:58.235Z,20.75
2023-06-22T06:03:57.258Z,20.687
2023-06-22T06:06:58.051Z,20.687
2023-06-22T06:09:58.139Z,20.375
2023-06-22T06:12:57.610Z,20.812
2023-06-22T06:15:57.551Z,20.812
2023-06-22T06:18:57.986Z,21.125
2023-06-22T06:21:57.609Z,21.125
2023-06-22T06:24:57.634Z,21.0
2023-06-22T06:27:57.885Z,21.375
2023-06-22T06:30:58.191Z,21.375
2023-06-22T06:33:57.662Z,21.875
2023-06-22T06:36:57.924Z,21.75
2023-06-22T06:39:57.130Z,21.75
2023-06-22T06:42:57.272Z,21.812
2023-06-22T06:45:57.677Z,21.562
2023-06-22T06:48:56.892Z,21.875
2023-06-22T06:51:57.701Z,22.562
2023-06-22T06:54:57.342Z,22.562
2023-06-22T06:57:57.661Z,22.375
2023-06-22T07:00:57.298Z,22.5
2023-06-22T07:03:57.493Z,22.875
2023-06-22T07:06:56.962Z,22.562
2023-06-22T07:09:57.527Z,22.5
2023-06-22T07:12:57.272Z,22.812
2023-06-22T07:15:57.509Z,23.437
2023-06-22T07:18:57.391Z,23.25
2023-06-22T07:21:56.999Z,23.25
2023-06-22T07:24:56.998Z,23.687
2023-06-22T07:27:57.584Z,23.687
2023-06-22T07:30:58.034Z,24.125
2023-06-22T07:33:57.073Z,24.312
2023-06-22T07:36:56.932Z,24.562
2023-06-22T07:39:57.428Z,24.937
2023-06-22T07:42:56.881Z,24.937
2023-06-22T07:45:57.809Z,24.5
2023-06-22T07:48:56.997Z,24.687
2023-06-22T07:51:56.810Z,24.687
2023-06-22T07:54:57.533Z,25.125
2023-06-22T07:57:57.665Z,25.25
2023-06-22T08:00:58.029Z,25.5
2023-06-22T08:03:56.879Z,25.312
2023-06-22T08:06:57.555Z,25.562
2023-06-22T08:09:58.016Z,25.562
2023-06-22T08:12:57.531Z,25.687
2023-06-22T08:15:57.318Z,26.125
2023-06-22T08:18:57.463Z,25.937
2023-06-22T08:21:56.698Z,26.062
2023-06-22T08:24:57.158Z,26.312
2023-06-22T08:27:57.594Z,26.312
2023-06-22T08:30:56.755Z,26.625
2023-06-22T08:33:56.970Z,26.875
2023-06-22T08:36:57.947Z,27.125
2023-06-22T08:39:57.183Z,27.0
2023-06-22T08:42:57.657Z,27.0
2023-06-22T08:45:57.064Z,26.75
2023-06-22T08:48:56.900Z,26.75
2023-06-22T08:51:57.602Z,26.75
2023-06-22T08:54:56.893Z,27.437
2023-06-22T08:57:57.380Z,26.875
2023-06-22T09:00:57.227Z,27.375
2023-06-22T09:03:57.616Z,27.875
2023-06-22T09:06:57.226Z,28.0
2023-06-22T09:09:58.234Z,27.562
2023-06-22T09:12:57.791Z,28.5
2023-06-22T09:15:57.741Z,28.5
2023-06-22T09:18:57.408Z,28.437
2023-06-22T09:21:58.287Z,28.75
2023-06-22T09:24:56.917Z,29.062
2023-06-22T09:27:57.414Z,28.687
2023-06-22T09:30:57.376Z,29.0
2023-06-22T09:33:56.789Z,29.062
2023-06-22T09:36:57.007Z,29.75
2023-06-22T09:39:57.342Z,29.437
2023-06-22T09:42:56.985Z,29.5
2023-06-22T09:45:57.562Z,29.5
2023-06-22T09:48:57.379Z,29.875
2023-06-22T09:51:57.470Z,29.375
2023-06-22T09:54:56.937Z,29.562
2023-06-22T09:57:56.944Z,29.0
2023-06-22T10:00:57.345Z,29.0
2023-06-22T10:03:57.451Z,30.062
2023-06-22T10:06:57.293Z,30.062
2023-06-22T10:09:57.072Z,30.062
2023-06-22T10:12:57.859Z,30.062
2023-06-22T10:15:57.073Z,30.375
2023-06-22T10:18:57.335Z,30.812
2023-06-22T10:21:56.844Z,30.625
2023-06-22T10:24:57.784Z,30.125
2023-06-22T10:27:57.430Z,30.125
2023-06-22T10:30:57.640Z,30.125
2023-06-22T10:33:57.092Z,31.125
2023-06-22T10:36:57.901Z,30.5
2023-06-22T10:39:57.757Z,30.812
2023-06-22T10:42:57.419Z,30.75
2023-06-22T10:45:57.214Z,31.812
2023-06-22T10:48:57.535Z,31.562
2023-06-22T10:51:57.245Z,31.25
2023-06-22T10:54:57.242Z,30.625
2023-06-22T10:57:57.097Z,30.687
2023-06-22T11:00:58.162Z,30.75
2023-06-22T11:04:15.494Z,31.25
2023-06-22T11:06:57.373Z,31.937
2023-06-22T11:09:57.587Z,30.812
2023-06-22T11:12:56.916Z,30.625
2023-06-22T11:15:57.432Z,31.062
2023-06-22T11:18:57.479Z,31.062
2023-06-22T11:21:57.440Z,32.062
2023-06-22T11:24:57.675Z,31.687
2023-06-22T11:27:57.977Z,31.062
2023-06-22T11:31:00.522Z,31.437
2023-06-22T11:33:57.492Z,31.5
2023-06-22T11:36:56.997Z,31.5
2023-06-22T11:42:57.804Z,31.312
2023-06-22T11:45:57.250Z,31.687
2023-06-22T11:48:57.367Z,32.875
2023-06-22T11:51:57.020Z,32.375
2023-06-22T11:54:57.599Z,31.75
2023-06-22T11:57:57.105Z,32.187
2023-06-22T12:00:57.856Z,32.062
2023-06-22T12:03:57.838Z,32.812
2023-06-22T12:06:57.238Z,32.562
2023-06-22T12:09:57.810Z,32.312
2023-06-22T12:12:57.679Z,32.5
2023-06-22T12:15:57.393Z,32.937
2023-06-22T12:18:57.078Z,33.062
2023-06-22T12:21:56.967Z,32.812
2023-06-22T12:24:57.347Z,31.75
2023-06-22T12:27:56.981Z,31.875
2023-06-22T12:30:56.820Z,31.5
2023-06-22T12:33:56.882Z,30.687
2023-06-22T12:36:57.712Z,30.312
2023-06-22T12:39:57.420Z,30.437
2023-06-22T12:42:57.291Z,30.5
2023-06-22T12:45:57.407Z,30.937
2023-06-22T12:48:57.721Z,30.937
2023-06-22T12:51:57.135Z,31.062
2023-06-22T12:54:57.458Z,31.062
2023-06-22T12:57:57.584Z,31.062
2023-06-22T13:00:57.870Z,31.5
2023-06-22T13:03:57.466Z,32.125
2023-06-22T13:07:01.229Z,32.125
2023-06-22T13:09:57.870Z,32.125
2023-06-22T13:12:56.990Z,31.937
2023-06-22T13:15:57.690Z,30.812
2023-06-22T13:18:57.344Z,30.562
2023-06-22T13:21:57.097Z,31.125
2023-06-22T13:24:57.497Z,32.0
2023-06-22T13:27:57.014Z,32.937
2023-06-22T13:30:58.062Z,33.125
2023-06-22T13:33:57.888Z,31.562
2023-06-22T13:36:57.734Z,30.75
2023-06-22T13:39:57.885Z,30.75
2023-06-22T13:42:57.978Z,30.812
2023-06-22T13:45:57.151Z,30.812
2023-06-22T13:48:57.581Z,30.812
2023-06-22T13:51:57.120Z,30.812
2023-06-22T13:54:57.546Z,30.0
2023-06-22T13:57:57.645Z,30.0
2023-06-22T14:00:58.135Z,30.25
2023-06-22T14:03:57.562Z,30.625
2023-06-22T14:06:57.790Z,31.25
2023-06-22T14:09:57.184Z,31.312
2023-06-22T14:12:58.586Z,30.937
2023-06-22T14:15:56.694Z,30.375
2023-06-22T14:18:58.289Z,30.187
2023-06-22T14:21:57.283Z,30.437
2023-06-22T14:24:57.905Z,30.562
2023-06-22T14:27:57.319Z,30.75
2023-06-22T14:30:58.297Z,30.75
2023-06-22T14:33:56.968Z,30.75
2023-06-22T14:36:57.858Z,30.875
2023-06-22T14:39:57.814Z,30.5
2023-06-22T14:42:57.684Z,30.125
2023-06-22T14:45:57.020Z,30.125
2023-06-22T14:48:57.915Z,30.25
2023-06-22T14:51:57.766Z,30.5
2023-06-22T14:54:57.938Z,30.687
2023-06-22T14:57:57.274Z,30.75
2023-06-22T15:00:57.826Z,30.5
2023-06-22T15:03:56.841Z,30.5
2023-06-22T15:06:56.908Z,29.687
2023-06-22T15:09:56.988Z,29.625
2023-06-22T15:12:57.435Z,29.437
2023-06-22T15:15:57.786Z,29.5
2023-06-22T15:18:56.882Z,29.687
2023-06-22T15:21:57.409Z,29.5
2023-06-22T15:24:57.575Z,29.625
2023-06-22T15:27:57.398Z,29.75
2023-06-22T15:30:57.513Z,29.812
2023-06-22T15:33:57.941Z,29.625
2023-06-22T15:36:57.503Z,29.5
2023-06-22T15:39:57.787Z,29.5
2023-06-22T15:42:57.924Z,29.75
2023-06-22T15:45:57.985Z,29.875
2023-06-22T15:48:57.271Z,29.875
2023-06-22T15:51:57.828Z,29.875
2023-06-22T15:54:57.266Z,29.375
2023-06-22T15:57:57.400Z,29.312
2023-06-22T16:00:57.309Z,29.312
2023-06-22T16:03:57.728Z,29.437
2023-06-22T16:06:58.013Z,29.437
2023-06-22T16:09:57.992Z,29.375
2023-06-22T16:12:57.639Z,29.375
2023-06-22T16:15:57.872Z,29.062
2023-06-22T16:18:57.604Z,29.062
2023-06-22T16:21:58.008Z,29.0
2023-06-22T16:24:57.784Z,29.0
2023-06-22T16:27:57.717Z,28.75
2023-06-22T16:30:58.409Z,28.625
2023-06-22T16:33:57.406Z,28.625
2023-06-22T16:36:58.223Z,28.625
2023-06-22T16:39:57.433Z,28.625
2023-06-22T16:42:57.489Z,28.5
2023-06-22T16:45:58.742Z,28.5
2023-06-22T16:48:57.590Z,28.125
2023-06-22T16:51:56.967Z,28.125
2023-06-22T16:55:01.134Z,27.687
2023-06-22T16:57:57.283Z,27.687
2023-06-22T17:00:58.466Z,27.5
2023-06-22T17:03:58.064Z,27.312
2023-06-22T17:06:57.940Z,26.75
2023-06-22T17:09:57.938Z,26.625
2023-06-22T17:12:57.126Z,26.187
2023-06-22T17:15:57.881Z,25.625
2023-06-22T17:21:57.768Z,25.625
2023-06-22T17:24:57.836Z,24.875
2023-06-22T17:27:58.070Z,25.0
2023-06-22T17:30:57.893Z,25.0
2023-06-22T17:33:57.485Z,24.875
2023-06-22T17:36:57.946Z,24.937
2023-06-22T17:39:57.938Z,25.062
2023-06-22T17:42:57.303Z,25.125
2023-06-22T17:45:57.569Z,24.562
2023-06-22T17:48:58.440Z,24.125
2023-06-22T17:51:57.239Z,24.125
2023-06-22T17:55:11.328Z,23.375
2023-06-22T17:57:57.665Z,23.187
2023-06-22T18:00:58.004Z,22.937
2023-06-22T18:03:57.477Z,22.937
2023-06-22T18:06:57.250Z,22.875
2023-06-22T18:09:57.870Z,22.625
2023-06-22T18:12:57.639Z,22.312
2023-06-22T18:15:57.971Z,22.312
2023-06-22T18:18:58.068Z,22.375
2023-06-22T18:21:58.034Z,22.375
2023-06-22T18:24:56.837Z,21.937
2023-06-22T18:27:57.426Z,22.0
2023-06-22T18:30:57.284Z,22.125
2023-06-22T18:33:57.996Z,22.312
2023-06-22T18:36:57.954Z,22.312
2023-06-22T18:39:57.027Z,21.812
2023-06-22T18:42:57.038Z,21.937
2023-06-22T18:45:57.774Z,21.562
2023-06-22T18:48:57.874Z,21.562
2023-06-22T18:51:57.531Z,21.562
2023-06-22T18:54:57.698Z,22.312
2023-06-22T18:57:57.634Z,21.687
2023-06-22T19:01:25.892Z,20.25
2023-06-22T19:03:57.461Z,20.125
2023-06-22T19:06:57.460Z,19.875
2023-06-22T19:09:57.392Z,19.812
2023-06-22T19:12:57.285Z,19.625
2023-06-22T19:15:58.009Z,19.625
2023-06-22T19:18:57.301Z,19.625
2023-06-22T19:21:57.055Z,19.812
2023-06-22T19:24:57.176Z,19.5
2023-06-22T19:27:57.440Z,19.375
2023-06-22T19:30:57.621Z,19.375
2023-06-22T19:33:57.255Z,19.125
2023-06-22T19:36:56.900Z,19.25
2023-06-22T19:39:59.037Z,19.5
2023-06-22T19:42:58.071Z,19.5
2023-06-22T19:45:57.421Z,19.75
2023-06-22T19:48:57.855Z,19.625
2023-06-22T19:51:57.559Z,19.75
2023-06-22T19:54:57.337Z,19.625
2023-06-22T19:57:57.796Z,19.625
2023-06-22T20:00:57.946Z,19.625
2023-06-22T20:03:56.765Z,19.812
2023-06-22T20:06:57.623Z,19.812
2023-06-22T20:09:57.652Z,19.812
2023-06-22T20:12:57.372Z,19.5
2023-06-22T20:15:57.287Z,19.437
2023-06-22T20:18:56.779Z,19.687
2023-06-22T20:21:57.531Z,19.687
2023-06-22T20:24:57.180Z,19.812
2023-06-22T20:27:58.118Z,19.937
2023-06-22T20:30:57.473Z,19.937
2023-06-22T20:33:57.222Z,19.625
2023-06-22T20:36:57.271Z,19.375
2023-06-22T20:39:57.285Z,19.375
2023-06-22T20:42:56.672Z,19.75
2023-06-22T20:45:57.271Z,19.875
2023-06-22T20:48:56.905Z,20.062
2023-06-22T20:51:57.476Z,20.125
2023-06-22T20:54:57.826Z,20.125
2023-06-22T20:57:57.500Z,20.312
2023-06-22T21:00:57.972Z,20.062
2023-06-22T21:03:57.081Z,19.875
2023-06-22T21:06:57.772Z,20.375
2023-06-22T21:09:57.475Z,20.312
2023-06-22T21:12:57.407Z,20.437
2023-06-22T21:15:57.581Z,20.375
2023-06-22T21:18:57.560Z,19.937
2023-06-22T21:21:57.046Z,19.937
2023-06-22T21:24:57.641Z,20.5
2023-06-22T21:27:57.257Z,20.187
2023-06-22T21:30:57.253Z,19.875
2023-06-22T21:33:57.555Z,19.75
2023-06-22T21:36:57.126Z,19.687
2023-06-22T21:39:57.046Z,19.687
2023-06-22T21:43:00.034Z,19.75
2023-06-22T21:45:57.704Z,19.687
2023-06-22T21:48:57.325Z,19.437
2023-06-22T21:51:57.797Z,18.937
2023-06-22T21:54:57.106Z,18.5
2023-06-22T21:57:57.769Z,18.312
2023-06-22T22:00:58.718Z,18.25
2023-06-22T22:03:57.489Z,18.187
2023-06-22T22:06:57.087Z,18.437
2023-06-22T22:09:57.759Z,18.437
2023-06-22T22:12:57.782Z,18.312
2023-06-22T22:15:57.623Z,18.5
2023-06-22T22:18:57.670Z,18.312
2023-06-22T22:21:57.400Z,18.312
2023-06-22T22:24:57.828Z,18.312
2023-06-22T22:27:57.192Z,18.437
2023-06-22T22:30:57.481Z,18.312
2023-06-22T22:33:56.767Z,18.375
2023-06-22T22:36:56.935Z,18.375
2023-06-22T22:39:57.415Z,18.25
2023-06-22T22:42:59.986Z,18.312
2023-06-22T22:45:57.570Z,18.187
2023-06-22T22:48:57.478Z,18.125
2023-06-22T22:51:56.881Z,18.125
2023-06-22T22:54:57.088Z,18.125
2023-06-22T22:57:56.895Z,18.125
2023-06-22T23:00:57.369Z,18.125
2023-06-22T23:03:58.131Z,18.062
2023-06-22T23:06:57.540Z,18.0
2023-06-22T23:09:57.271Z,18.062
2023-06-22T23:12:56.899Z,18.0
2023-06-22T23:15:57.299Z,17.937
2023-06-22T23:18:57.451Z,17.937
2023-06-22T23:21:56.991Z,17.875
2023-06-22T23:24:57.540Z,17.875
2023-06-22T23:27:57.008Z,17.812
2023-06-22T23:30:57.397Z,17.75
2023-06-22T23:33:57.009Z,17.687
2023-06-22T23:36:57.619Z,17.625
2023-06-22T23:39:57.007Z,17.625
2023-06-22T23:42:57.636Z,17.625
2023-06-22T23:45:57.708Z,17.562
2023-06-22T23:48:57.621Z,17.437
2023-06-22T23:51:56.849Z,17.5
2023-06-22T23:54:57.571Z,17.437
2023-06-22T23:57:57.126Z,17.437
